sensor_id;sensor_type;location;lat;lon;timestamp;pressure;altitude;pressure_sealevel;temperature;humidity
70900;BME280;67902;52.154;5.430;2023-05-01T00:01:28;101937.66;;;10.15;78.21
70900;BME280;67902;52.154;5.430;2023-05-01T00:03:54;101941.41;;;10.14;77.93
70900;BME280;67902;52.154;5.430;2023-05-01T00:06:21;101930.97;;;10.11;79.08
70900;BME280;67902;52.154;5.430;2023-05-01T00:08:47;101928.69;;;10.08;79.60
70900;BME280;67902;52.154;5.430;2023-05-01T00:11:14;101928.75;;;10.02;78.41
70900;BME280;67902;52.154;5.430;2023-05-01T00:13:41;101928.75;;;9.95;77.96
70900;BME280;67902;52.154;5.430;2023-05-01T00:16:08;101925.44;;;9.86;78.87
70900;BME280;67902;52.154;5.430;2023-05-01T00:18:35;101920.03;;;9.80;78.04
70900;BME280;67902;52.154;5.430;2023-05-01T00:21:02;101912.59;;;9.69;78.75
70900;BME280;67902;52.154;5.430;2023-05-01T00:23:28;101912.41;;;9.64;78.81
70900;BME280;67902;52.154;5.430;2023-05-01T00:25:55;101912.63;;;9.56;78.31
70900;BME280;67902;52.154;5.430;2023-05-01T00:28:22;101899.75;;;9.51;79.60
70900;BME280;67902;52.154;5.430;2023-05-01T00:30:49;101902.03;;;9.48;79.71
70900;BME280;67902;52.154;5.430;2023-05-01T00:33:15;101894.34;;;9.45;79.81
70900;BME280;67902;52.154;5.430;2023-05-01T00:35:43;101893.72;;;9.43;80.68
70900;BME280;67902;52.154;5.430;2023-05-01T00:38:10;101890.19;;;9.42;79.70
70900;BME280;67902;52.154;5.430;2023-05-01T00:40:43;101894.16;;;9.40;80.21
70900;BME280;67902;52.154;5.430;2023-05-01T00:43:10;101891.44;;;9.40;80.02
70900;BME280;67902;52.154;5.430;2023-05-01T00:45:38;101891.88;;;9.37;80.33
70900;BME280;67902;52.154;5.430;2023-05-01T00:48:05;101876.91;;;9.34;80.40
70900;BME280;67902;52.154;5.430;2023-05-01T00:50:32;101877.75;;;9.28;80.35
70900;BME280;67902;52.154;5.430;2023-05-01T00:52:59;101866.72;;;9.23;79.37
70900;BME280;67902;52.154;5.430;2023-05-01T00:55:25;101863.19;;;9.22;80.22
70900;BME280;67902;52.154;5.430;2023-05-01T00:57:53;101860.06;;;9.25;80.17
70900;BME280;67902;52.154;5.430;2023-05-01T01:00:20;101860.06;;;9.25;80.77
70900;BME280;67902;52.154;5.430;2023-05-01T01:02:49;101852.59;;;9.21;79.82
70900;BME280;67902;52.154;5.430;2023-05-01T01:05:16;101854.03;;;9.23;80.91
70900;BME280;67902;52.154;5.430;2023-05-01T01:07:50;101849.50;;;9.17;80.12
70900;BME280;67902;52.154;5.430;2023-05-01T01:10:39;101846.16;;;9.15;80.47
70900;BME280;67902;52.154;5.430;2023-05-01T01:13:26;101842.63;;;9.08;80.21
70900;BME280;67902;52.154;5.430;2023-05-01T01:18:44;101832.47;;;8.97;81.82
70900;BME280;67902;52.154;5.430;2023-05-01T01:29:45;101814.81;;;8.95;81.19
70900;BME280;67902;52.154;5.430;2023-05-01T01:35:03;101806.28;;;8.91;81.95
70900;BME280;67902;52.154;5.430;2023-05-01T01:37:41;101809.59;;;8.93;82.13
70900;BME280;67902;52.154;5.430;2023-05-01T01:40:13;101802.56;;;8.92;81.41
70900;BME280;67902;52.154;5.430;2023-05-01T01:43:01;101802.34;;;8.94;81.09
70900;BME280;67902;52.154;5.430;2023-05-01T01:45:34;101803.34;;;8.93;81.59
70900;BME280;67902;52.154;5.430;2023-05-01T01:48:01;101785.28;;;8.93;81.31
70900;BME280;67902;52.154;5.430;2023-05-01T01:50:30;101791.75;;;8.92;80.84
70900;BME280;67902;52.154;5.430;2023-05-01T01:52:59;101775.97;;;8.89;80.95
70900;BME280;67902;52.154;5.430;2023-05-01T01:55:28;101776.38;;;8.86;81.61
70900;BME280;67902;52.154;5.430;2023-05-01T01:57:58;101771.41;;;8.83;81.09
70900;BME280;67902;52.154;5.430;2023-05-01T02:00:26;101772.22;;;8.84;81.49
70900;BME280;67902;52.154;5.430;2023-05-01T02:02:53;101773.06;;;8.84;81.05
70900;BME280;67902;52.154;5.430;2023-05-01T02:05:20;101757.28;;;8.81;80.88
70900;BME280;67902;52.154;5.430;2023-05-01T02:07:48;101759.34;;;8.79;81.04
70900;BME280;67902;52.154;5.430;2023-05-01T02:10:16;101755.59;;;8.80;80.18
70900;BME280;67902;52.154;5.430;2023-05-01T02:12:47;101747.94;;;8.57;79.48
70900;BME280;67902;52.154;5.430;2023-05-01T02:15:17;101751.91;;;8.42;79.99
70900;BME280;67902;52.154;5.430;2023-05-01T02:17:44;101751.25;;;8.40;80.96
70900;BME280;67902;52.154;5.430;2023-05-01T02:20:12;101745.66;;;8.41;81.87
70900;BME280;67902;52.154;5.430;2023-05-01T02:22:39;101755.63;;;8.41;81.77
70900;BME280;67902;52.154;5.430;2023-05-01T02:25:07;101741.53;;;8.39;82.19
70900;BME280;67902;52.154;5.430;2023-05-01T02:27:39;101744.44;;;8.44;82.49
70900;BME280;67902;52.154;5.430;2023-05-01T02:30:07;101740.69;;;8.45;82.70
70900;BME280;67902;52.154;5.430;2023-05-01T02:32:33;101734.06;;;8.47;81.90
70900;BME280;67902;52.154;5.430;2023-05-01T02:35:00;101733.00;;;8.48;81.97
70900;BME280;67902;52.154;5.430;2023-05-01T02:37:26;101731.13;;;8.49;81.43
70900;BME280;67902;52.154;5.430;2023-05-01T02:39:53;101729.25;;;8.49;81.30
70900;BME280;67902;52.154;5.430;2023-05-01T02:42:22;101723.44;;;8.52;82.68
70900;BME280;67902;52.154;5.430;2023-05-01T02:44:53;101725.31;;;8.58;82.71
70900;BME280;67902;52.154;5.430;2023-05-01T02:47:22;101723.00;;;8.62;82.11
70900;BME280;67902;52.154;5.430;2023-05-01T02:49:50;101717.84;;;8.60;82.11
70900;BME280;67902;52.154;5.430;2023-05-01T02:52:17;101726.13;;;8.59;82.74
70900;BME280;67902;52.154;5.430;2023-05-01T02:54:44;101721.97;;;8.63;82.76
70900;BME280;67902;52.154;5.430;2023-05-01T02:57:11;101711.78;;;8.65;82.49
70900;BME280;67902;52.154;5.430;2023-05-01T02:59:38;101717.00;;;8.60;82.80
70900;BME280;67902;52.154;5.430;2023-05-01T03:02:06;101715.97;;;8.61;83.05
70900;BME280;67902;52.154;5.430;2023-05-01T03:04:32;101706.41;;;8.58;82.57
70900;BME280;67902;52.154;5.430;2023-05-01T03:06:59;101703.69;;;8.65;82.97
70900;BME280;67902;52.154;5.430;2023-05-01T03:09:25;101705.13;;;8.67;83.72
70900;BME280;67902;52.154;5.430;2023-05-01T03:11:52;101705.13;;;8.67;82.97
70900;BME280;67902;52.154;5.430;2023-05-01T03:14:18;101701.22;;;8.70;82.94
70900;BME280;67902;52.154;5.430;2023-05-01T03:16:45;101692.88;;;8.78;84.04
70900;BME280;67902;52.154;5.430;2023-05-01T03:19:11;101695.78;;;8.83;82.58
70900;BME280;67902;52.154;5.430;2023-05-01T03:21:37;101680.78;;;8.87;82.84
70900;BME280;67902;52.154;5.430;2023-05-01T03:24:04;101687.69;;;8.83;82.52
70900;BME280;67902;52.154;5.430;2023-05-01T03:26:31;101683.94;;;8.84;83.16
70900;BME280;67902;52.154;5.430;2023-05-01T03:28:58;101684.13;;;8.83;83.15
70900;BME280;67902;52.154;5.430;2023-05-01T03:31:24;101674.78;;;8.85;84.02
70900;BME280;67902;52.154;5.430;2023-05-01T03:33:51;101679.56;;;8.90;83.94
70900;BME280;67902;52.154;5.430;2023-05-01T03:36:17;101679.53;;;8.96;85.22
70900;BME280;67902;52.154;5.430;2023-05-01T03:38:43;101671.59;;;9.01;84.54
70900;BME280;67902;52.154;5.430;2023-05-01T03:41:10;101664.56;;;9.00;83.78
70900;BME280;67902;52.154;5.430;2023-05-01T03:43:36;101660.81;;;9.01;83.88
70900;BME280;67902;52.154;5.430;2023-05-01T03:46:03;101667.09;;;8.95;82.71
70900;BME280;67902;52.154;5.430;2023-05-01T03:48:29;101665.41;;;8.88;82.69
70900;BME280;67902;52.154;5.430;2023-05-01T03:50:56;101661.69;;;8.89;83.09
70900;BME280;67902;52.154;5.430;2023-05-01T03:53:23;101666.25;;;8.88;84.05
70900;BME280;67902;52.154;5.430;2023-05-01T03:55:50;101660.00;;;8.94;84.20
70900;BME280;67902;52.154;5.430;2023-05-01T03:58:16;101663.53;;;8.95;84.33
70900;BME280;67902;52.154;5.430;2023-05-01T04:00:43;101657.50;;;8.93;83.50
70900;BME280;67902;52.154;5.430;2023-05-01T04:03:09;101660.00;;;8.94;82.67
70900;BME280;67902;52.154;5.430;2023-05-01T04:05:36;101651.06;;;8.94;82.74
70900;BME280;67902;52.154;5.430;2023-05-01T04:08:02;101653.97;;;8.99;84.25
70900;BME280;67902;52.154;5.430;2023-05-01T04:10:29;101649.56;;;9.04;83.07
70900;BME280;67902;52.154;5.430;2023-05-01T04:12:56;101643.31;;;9.10;84.13
70900;BME280;67902;52.154;5.430;2023-05-01T04:15:22;101643.13;;;9.12;83.09
70900;BME280;67902;52.154;5.430;2023-05-01T04:17:49;101640.63;;;9.10;82.33
70900;BME280;67902;52.154;5.430;2023-05-01T04:20:15;101647.25;;;9.14;83.35
70900;BME280;67902;52.154;5.430;2023-05-01T04:22:44;101642.03;;;9.19;82.96
70900;BME280;67902;52.154;5.430;2023-05-01T04:25:10;101642.03;;;9.19;82.51
70900;BME280;67902;52.154;5.430;2023-05-01T04:27:37;101643.91;;;9.19;83.03
70900;BME280;67902;52.154;5.430;2023-05-01T04:30:03;101641.63;;;9.16;83.30
70900;BME280;67902;52.154;5.430;2023-05-01T04:32:30;101637.66;;;9.18;83.79
70900;BME280;67902;52.154;5.430;2023-05-01T04:34:56;101633.50;;;9.22;83.77
70900;BME280;67902;52.154;5.430;2023-05-01T04:37:23;101631.84;;;9.21;82.88
70900;BME280;67902;52.154;5.430;2023-05-01T04:39:49;101644.56;;;9.14;82.90
70900;BME280;67902;52.154;5.430;2023-05-01T04:42:16;101650.16;;;9.13;82.51
70900;BME280;67902;52.154;5.430;2023-05-01T04:44:44;101654.97;;;9.04;82.93
70900;BME280;67902;52.154;5.430;2023-05-01T04:47:10;101650.84;;;9.02;82.53
70900;BME280;67902;52.154;5.430;2023-05-01T04:49:37;101649.97;;;9.14;84.22
70900;BME280;67902;52.154;5.430;2023-05-01T04:52:03;101648.28;;;9.20;83.51
70900;BME280;67902;52.154;5.430;2023-05-01T04:54:30;101647.00;;;9.22;82.60
70900;BME280;67902;52.154;5.430;2023-05-01T04:56:56;101645.75;;;9.25;83.28
70900;BME280;67902;52.154;5.430;2023-05-01T04:59:22;101639.25;;;9.32;83.44
70900;BME280;67902;52.154;5.430;2023-05-01T05:01:49;101641.28;;;9.44;82.96
70900;BME280;67902;52.154;5.430;2023-05-01T05:04:15;101646.41;;;9.52;82.93
70900;BME280;67902;52.154;5.430;2023-05-01T05:06:41;101644.13;;;9.55;82.64
70900;BME280;67902;52.154;5.430;2023-05-01T05:09:08;101638.69;;;9.62;82.36
70900;BME280;67902;52.154;5.430;2023-05-01T05:11:34;101639.28;;;9.64;81.72
70900;BME280;67902;52.154;5.430;2023-05-01T05:14:01;101638.50;;;9.57;81.44
70900;BME280;67902;52.154;5.430;2023-05-01T05:16:27;101643.00;;;9.63;82.49
70900;BME280;67902;52.154;5.430;2023-05-01T05:18:55;101640.06;;;9.71;82.43
70900;BME280;67902;52.154;5.430;2023-05-01T05:21:22;101633.00;;;9.70;81.17
70900;BME280;67902;52.154;5.430;2023-05-01T05:23:48;101634.00;;;9.75;82.29
70900;BME280;67902;52.154;5.430;2023-05-01T05:26:16;101637.47;;;9.82;82.69
70900;BME280;67902;52.154;5.430;2023-05-01T05:28:43;101639.38;;;9.82;81.81
70900;BME280;67902;52.154;5.430;2023-05-01T05:31:09;101634.97;;;9.87;81.85
70900;BME280;67902;52.154;5.430;2023-05-01T05:33:35;101636.16;;;9.91;81.44
70900;BME280;67902;52.154;5.430;2023-05-01T05:36:02;101634.44;;;9.97;81.93
70900;BME280;67902;52.154;5.430;2023-05-01T05:38:28;101636.88;;;10.05;82.10
70900;BME280;67902;52.154;5.430;2023-05-01T05:40:55;101637.66;;;10.12;80.46
70900;BME280;67902;52.154;5.430;2023-05-01T05:43:21;101637.66;;;10.12;79.24
70900;BME280;67902;52.154;5.430;2023-05-01T05:45:48;101631.03;;;10.08;80.49
70900;BME280;67902;52.154;5.430;2023-05-01T05:48:15;101626.44;;;10.15;79.66
70900;BME280;67902;52.154;5.430;2023-05-01T05:50:41;101621.78;;;10.22;79.51
70900;BME280;67902;52.154;5.430;2023-05-01T05:53:08;101621.34;;;10.25;79.65
70900;BME280;67902;52.154;5.430;2023-05-01T05:55:35;101613.81;;;10.27;78.91
70900;BME280;67902;52.154;5.430;2023-05-01T05:58:01;101622.09;;;10.32;79.10
70900;BME280;67902;52.154;5.430;2023-05-01T06:00:27;101615.56;;;10.40;78.87
70900;BME280;67902;52.154;5.430;2023-05-01T06:02:54;101617.44;;;10.39;77.82
70900;BME280;67902;52.154;5.430;2023-05-01T06:05:20;101623.00;;;10.44;77.78
70900;BME280;67902;52.154;5.430;2023-05-01T06:07:47;101620.63;;;10.55;78.39
70900;BME280;67902;52.154;5.430;2023-05-01T06:10:14;101620.63;;;10.55;76.95
70900;BME280;67902;52.154;5.430;2023-05-01T06:12:40;101626.03;;;10.55;77.20
70900;BME280;67902;52.154;5.430;2023-05-01T06:15:18;101620.91;;;10.65;77.53
70900;BME280;67902;52.154;5.430;2023-05-01T06:17:44;101622.28;;;10.74;76.37
70900;BME280;67902;52.154;5.430;2023-05-01T06:20:11;101617.59;;;10.81;75.41
70900;BME280;67902;52.154;5.430;2023-05-01T06:22:39;101619.88;;;10.84;77.55
70900;BME280;67902;52.154;5.430;2023-05-01T06:25:06;101614.91;;;10.99;76.12
70900;BME280;67902;52.154;5.430;2023-05-01T06:27:33;101618.50;;;11.11;76.24
70900;BME280;67902;52.154;5.430;2023-05-01T06:29:59;101612.38;;;11.16;76.25
70900;BME280;67902;52.154;5.430;2023-05-01T06:32:26;101615.28;;;11.32;75.89
70900;BME280;67902;52.154;5.430;2023-05-01T06:34:52;101610.44;;;11.34;74.77
70900;BME280;67902;52.154;5.430;2023-05-01T06:37:18;101613.78;;;11.36;75.22
70900;BME280;67902;52.154;5.430;2023-05-01T06:39:46;101615.00;;;11.52;74.87
70900;BME280;67902;52.154;5.430;2023-05-01T06:42:13;101614.44;;;11.61;73.59
70900;BME280;67902;52.154;5.430;2023-05-01T06:44:41;101613.53;;;11.68;73.38
70900;BME280;67902;52.154;5.430;2023-05-01T06:47:08;101610.34;;;11.71;74.17
70900;BME280;67902;52.154;5.430;2023-05-01T06:49:35;101609.31;;;11.72;74.07
70900;BME280;67902;52.154;5.430;2023-05-01T06:52:01;101603.06;;;11.83;75.47
70900;BME280;67902;52.154;5.430;2023-05-01T06:54:28;101606.84;;;11.82;73.34
70900;BME280;67902;52.154;5.430;2023-05-01T06:56:54;101601.16;;;11.72;73.68
70900;BME280;67902;52.154;5.430;2023-05-01T06:59:21;101602.69;;;11.68;73.89
70900;BME280;67902;52.154;5.430;2023-05-01T07:01:47;101604.94;;;11.71;73.96
70900;BME280;67902;52.154;5.430;2023-05-01T07:04:14;101604.00;;;11.77;73.72
70900;BME280;67902;52.154;5.430;2023-05-01T07:06:40;101601.56;;;11.87;74.46
70900;BME280;67902;52.154;5.430;2023-05-01T07:09:07;101601.56;;;11.87;75.37
70900;BME280;67902;52.154;5.430;2023-05-01T07:11:33;101602.38;;;11.99;73.07
70900;BME280;67902;52.154;5.430;2023-05-01T07:14:00;101610.41;;;11.94;73.54
70900;BME280;67902;52.154;5.430;2023-05-01T07:16:26;101601.22;;;11.95;72.70
70900;BME280;67902;52.154;5.430;2023-05-01T07:18:53;101598.63;;;12.00;72.43
70900;BME280;67902;52.154;5.430;2023-05-01T07:21:19;101596.47;;;12.02;72.62
70900;BME280;67902;52.154;5.430;2023-05-01T07:23:46;101596.28;;;12.15;71.43
70900;BME280;67902;52.154;5.430;2023-05-01T07:26:12;101593.66;;;12.20;69.58
70900;BME280;67902;52.154;5.430;2023-05-01T07:28:39;101601.56;;;12.33;70.05
70900;BME280;67902;52.154;5.430;2023-05-01T07:31:09;101597.78;;;12.57;70.74
70900;BME280;67902;52.154;5.430;2023-05-01T07:33:36;101599.91;;;12.55;70.69
70900;BME280;67902;52.154;5.430;2023-05-01T07:36:03;101606.25;;;12.61;71.27
70900;BME280;67902;52.154;5.430;2023-05-01T07:38:29;101604.47;;;12.66;70.79
70900;BME280;67902;52.154;5.430;2023-05-01T07:40:56;101598.44;;;12.76;69.67
70900;BME280;67902;52.154;5.430;2023-05-01T07:43:22;101602.78;;;12.89;69.50
70900;BME280;67902;52.154;5.430;2023-05-01T07:45:56;101602.66;;;12.95;68.70
70900;BME280;67902;52.154;5.430;2023-05-01T07:48:23;101597.47;;;12.94;69.15
70900;BME280;67902;52.154;5.430;2023-05-01T07:50:50;101600.66;;;12.91;70.23
70900;BME280;67902;52.154;5.430;2023-05-01T07:53:16;101595.00;;;12.80;69.56
70900;BME280;67902;52.154;5.430;2023-05-01T07:55:43;101603.06;;;12.75;70.27
70900;BME280;67902;52.154;5.430;2023-05-01T07:58:09;101600.13;;;12.65;70.00
70900;BME280;67902;52.154;5.430;2023-05-01T08:00:36;101602.38;;;12.68;70.29
70900;BME280;67902;52.154;5.430;2023-05-01T08:03:02;101593.59;;;12.78;70.22
70900;BME280;67902;52.154;5.430;2023-05-01T08:05:29;101596.19;;;12.85;70.07
70900;BME280;67902;52.154;5.430;2023-05-01T08:07:57;101605.88;;;12.80;69.84
70900;BME280;67902;52.154;5.430;2023-05-01T08:10:23;101597.63;;;12.75;70.14
70900;BME280;67902;52.154;5.430;2023-05-01T08:12:50;101607.66;;;12.75;69.79
70900;BME280;67902;52.154;5.430;2023-05-01T08:15:16;101608.00;;;12.78;71.43
70900;BME280;67902;52.154;5.430;2023-05-01T08:17:42;101607.28;;;12.83;72.33
70900;BME280;67902;52.154;5.430;2023-05-01T08:20:09;101600.31;;;12.87;72.53
70900;BME280;67902;52.154;5.430;2023-05-01T08:22:36;101602.53;;;13.02;72.08
70900;BME280;67902;52.154;5.430;2023-05-01T08:25:03;101611.38;;;13.09;72.66
70900;BME280;67902;52.154;5.430;2023-05-01T08:27:30;101600.84;;;13.12;71.21
70900;BME280;67902;52.154;5.430;2023-05-01T08:29:57;101600.97;;;13.06;71.36
70900;BME280;67902;52.154;5.430;2023-05-01T08:32:23;101606.88;;;13.14;70.93
70900;BME280;67902;52.154;5.430;2023-05-01T08:34:50;101602.75;;;13.12;69.48
70900;BME280;67902;52.154;5.430;2023-05-01T08:37:16;101605.81;;;13.04;70.80
70900;BME280;67902;52.154;5.430;2023-05-01T08:39:44;101605.25;;;13.13;71.00
70900;BME280;67902;52.154;5.430;2023-05-01T08:42:10;101597.59;;;13.27;70.56
70900;BME280;67902;52.154;5.430;2023-05-01T08:44:39;101604.69;;;13.28;68.98
70900;BME280;67902;52.154;5.430;2023-05-01T08:47:10;101615.06;;;13.31;67.89
70900;BME280;67902;52.154;5.430;2023-05-01T08:49:40;101605.38;;;13.35;68.05
70900;BME280;67902;52.154;5.430;2023-05-01T08:52:10;101603.56;;;13.41;67.63
70900;BME280;67902;52.154;5.430;2023-05-01T08:54:44;101605.63;;;13.50;68.23
70900;BME280;67902;52.154;5.430;2023-05-01T08:57:12;101606.31;;;13.57;69.01
70900;BME280;67902;52.154;5.430;2023-05-01T08:59:39;101605.84;;;13.60;68.74
70900;BME280;67902;52.154;5.430;2023-05-01T09:02:07;101604.88;;;13.66;68.55
70900;BME280;67902;52.154;5.430;2023-05-01T09:04:37;101607.91;;;13.70;68.63
70900;BME280;67902;52.154;5.430;2023-05-01T09:07:04;101601.25;;;13.77;67.59
70900;BME280;67902;52.154;5.430;2023-05-01T09:09:31;101607.81;;;13.81;67.83
70900;BME280;67902;52.154;5.430;2023-05-01T09:12:27;101599.34;;;13.94;67.40
70900;BME280;67902;52.154;5.430;2023-05-01T09:14:55;101606.19;;;13.97;67.58
70900;BME280;67902;52.154;5.430;2023-05-01T09:17:23;101606.53;;;14.17;67.38
70900;BME280;67902;52.154;5.430;2023-05-01T09:19:49;101612.28;;;14.21;67.02
70900;BME280;67902;52.154;5.430;2023-05-01T09:22:17;101606.41;;;14.29;66.44
70900;BME280;67902;52.154;5.430;2023-05-01T09:24:44;101606.34;;;14.40;65.08
70900;BME280;67902;52.154;5.430;2023-05-01T09:27:12;101617.31;;;14.62;64.32
70900;BME280;67902;52.154;5.430;2023-05-01T09:29:43;101613.13;;;14.76;65.08
70900;BME280;67902;52.154;5.430;2023-05-01T09:34:49;101611.91;;;15.10;60.80
70900;BME280;67902;52.154;5.430;2023-05-01T09:37:30;101607.25;;;15.33;60.57
70900;BME280;67902;52.154;5.430;2023-05-01T09:40:07;101617.78;;;15.24;60.11
70900;BME280;67902;52.154;5.430;2023-05-01T09:42:36;101610.78;;;15.33;59.88
70900;BME280;67902;52.154;5.430;2023-05-01T09:45:10;101617.34;;;15.54;61.40
70900;BME280;67902;52.154;5.430;2023-05-01T09:47:37;101614.28;;;15.77;60.67
70900;BME280;67902;52.154;5.430;2023-05-01T09:50:04;101619.66;;;15.99;62.66
70900;BME280;67902;52.154;5.430;2023-05-01T09:52:30;101618.34;;;16.06;62.25
70900;BME280;67902;52.154;5.430;2023-05-01T09:55:16;101610.81;;;16.23;60.86
70900;BME280;67902;52.154;5.430;2023-05-01T09:57:44;101614.19;;;16.36;58.36
70900;BME280;67902;52.154;5.430;2023-05-01T10:00:14;101616.75;;;16.52;57.27
70900;BME280;67902;52.154;5.430;2023-05-01T10:02:43;101620.84;;;16.50;56.79
70900;BME280;67902;52.154;5.430;2023-05-01T10:05:11;101607.53;;;16.58;57.86
70900;BME280;67902;52.154;5.430;2023-05-01T10:07:38;101611.16;;;16.69;55.67
70900;BME280;67902;52.154;5.430;2023-05-01T10:10:15;101605.78;;;16.94;58.40
70900;BME280;67902;52.154;5.430;2023-05-01T10:12:42;101606.03;;;16.88;55.36
70900;BME280;67902;52.154;5.430;2023-05-01T10:15:09;101605.69;;;16.74;53.84
70900;BME280;67902;52.154;5.430;2023-05-01T10:17:50;101604.63;;;16.80;55.82
70900;BME280;67902;52.154;5.430;2023-05-01T10:20:17;101607.38;;;16.85;55.85
70900;BME280;67902;52.154;5.430;2023-05-01T10:22:43;101608.03;;;17.07;53.53
70900;BME280;67902;52.154;5.430;2023-05-01T10:25:11;101617.69;;;17.30;53.55
70900;BME280;67902;52.154;5.430;2023-05-01T10:27:38;101622.91;;;17.42;53.31
70900;BME280;67902;52.154;5.430;2023-05-01T10:30:08;101617.22;;;17.58;52.21
70900;BME280;67902;52.154;5.430;2023-05-01T10:32:36;101607.63;;;17.61;49.87
70900;BME280;67902;52.154;5.430;2023-05-01T10:35:07;101614.78;;;17.67;50.21
70900;BME280;67902;52.154;5.430;2023-05-01T10:37:46;101614.22;;;17.80;51.48
70900;BME280;67902;52.154;5.430;2023-05-01T10:43:21;101612.56;;;17.69;52.04
70900;BME280;67902;52.154;5.430;2023-05-01T10:45:52;101615.06;;;17.90;49.41
70900;BME280;67902;52.154;5.430;2023-05-01T10:51:16;101620.28;;;17.92;52.56
70900;BME280;67902;52.154;5.430;2023-05-01T10:53:44;101626.03;;;17.90;53.09
70900;BME280;67902;52.154;5.430;2023-05-01T10:58:57;101622.19;;;17.96;51.57
70900;BME280;67902;52.154;5.430;2023-05-01T11:01:37;101625.19;;;18.05;51.47
70900;BME280;67902;52.154;5.430;2023-05-01T11:09:43;101620.53;;;18.26;50.84
70900;BME280;67902;52.154;5.430;2023-05-01T11:12:12;101621.91;;;18.18;49.75
70900;BME280;67902;52.154;5.430;2023-05-01T11:17:44;101631.78;;;18.09;50.58
70900;BME280;67902;52.154;5.430;2023-05-01T11:22:51;101627.91;;;18.40;49.99
70900;BME280;67902;52.154;5.430;2023-05-01T11:25:22;101622.16;;;18.42;51.68
70900;BME280;67902;52.154;5.430;2023-05-01T11:27:51;101626.25;;;18.60;51.25
70900;BME280;67902;52.154;5.430;2023-05-01T11:30:19;101628.44;;;18.63;51.68
70900;BME280;67902;52.154;5.430;2023-05-01T11:32:47;101622.63;;;18.79;50.73
70900;BME280;67902;52.154;5.430;2023-05-01T11:35:25;101624.47;;;19.04;50.83
70900;BME280;67902;52.154;5.430;2023-05-01T11:37:55;101621.41;;;19.16;49.29
70900;BME280;67902;52.154;5.430;2023-05-01T11:40:32;101620.19;;;19.32;50.19
70900;BME280;67902;52.154;5.430;2023-05-01T11:43:06;101617.34;;;19.57;50.56
70900;BME280;67902;52.154;5.430;2023-05-01T11:45:34;101614.75;;;19.76;48.12
70900;BME280;67902;52.154;5.430;2023-05-01T11:48:01;101617.41;;;19.86;49.73
70900;BME280;67902;52.154;5.430;2023-05-01T11:50:34;101616.47;;;20.34;50.34
70900;BME280;67902;52.154;5.430;2023-05-01T11:53:02;101609.56;;;20.60;48.36
70900;BME280;67902;52.154;5.430;2023-05-01T11:55:33;101615.34;;;20.88;47.96
70900;BME280;67902;52.154;5.430;2023-05-01T11:58:00;101617.53;;;20.86;45.36
70900;BME280;67902;52.154;5.430;2023-05-01T12:00:38;101617.41;;;21.19;46.71
70900;BME280;67902;52.154;5.430;2023-05-01T12:03:10;101614.41;;;21.58;44.63
70900;BME280;67902;52.154;5.430;2023-05-01T12:05:39;101611.00;;;22.31;44.32
70900;BME280;67902;52.154;5.430;2023-05-01T12:08:16;101606.56;;;22.16;44.78
70900;BME280;67902;52.154;5.430;2023-05-01T12:10:53;101610.59;;;22.37;44.67
70900;BME280;67902;52.154;5.430;2023-05-01T12:13:22;101613.03;;;21.74;43.64
70900;BME280;67902;52.154;5.430;2023-05-01T12:15:51;101620.03;;;21.48;43.94
70900;BME280;67902;52.154;5.430;2023-05-01T12:18:18;101630.03;;;21.02;46.63
70900;BME280;67902;52.154;5.430;2023-05-01T12:20:52;101630.44;;;21.14;46.88
70900;BME280;67902;52.154;5.430;2023-05-01T12:23:38;101625.75;;;20.91;46.47
70900;BME280;67902;52.154;5.430;2023-05-01T12:26:21;101626.94;;;20.32;45.50
70900;BME280;67902;52.154;5.430;2023-05-01T12:29:20;101635.59;;;19.77;46.90
70900;BME280;67902;52.154;5.430;2023-05-01T12:31:47;101638.84;;;19.45;47.29
70900;BME280;67902;52.154;5.430;2023-05-01T12:34:14;101632.06;;;19.27;47.72
70900;BME280;67902;52.154;5.430;2023-05-01T12:36:40;101631.56;;;19.15;47.78
70900;BME280;67902;52.154;5.430;2023-05-01T12:39:09;101636.06;;;18.86;50.77
70900;BME280;67902;52.154;5.430;2023-05-01T12:44:25;101632.59;;;18.35;54.18
70900;BME280;67902;52.154;5.430;2023-05-01T12:47:06;101638.91;;;18.35;53.41
70900;BME280;67902;52.154;5.430;2023-05-01T12:49:34;101643.81;;;18.33;53.85
70900;BME280;67902;52.154;5.430;2023-05-01T12:52:05;101650.94;;;18.39;54.50
70900;BME280;67902;52.154;5.430;2023-05-01T12:54:37;101639.69;;;18.36;53.10
70900;BME280;67902;52.154;5.430;2023-05-01T12:57:09;101643.88;;;18.13;54.37
70900;BME280;67902;52.154;5.430;2023-05-01T12:59:37;101646.03;;;18.01;55.05
70900;BME280;67902;52.154;5.430;2023-05-01T13:02:05;101640.00;;;17.89;54.68
70900;BME280;67902;52.154;5.430;2023-05-01T13:04:33;101636.97;;;17.80;56.37
70900;BME280;67902;52.154;5.430;2023-05-01T13:07:00;101640.50;;;17.66;57.72
70900;BME280;67902;52.154;5.430;2023-05-01T13:09:28;101637.19;;;17.49;56.90
70900;BME280;67902;52.154;5.430;2023-05-01T13:12:02;101636.06;;;17.34;58.60
70900;BME280;67902;52.154;5.430;2023-05-01T13:14:37;101640.41;;;17.35;59.14
70900;BME280;67902;52.154;5.430;2023-05-01T13:17:06;101640.94;;;17.22;58.07
70900;BME280;67902;52.154;5.430;2023-05-01T13:19:35;101637.06;;;17.13;60.62
70900;BME280;67902;52.154;5.430;2023-05-01T13:22:02;101635.97;;;17.09;61.99
70900;BME280;67902;52.154;5.430;2023-05-01T13:24:39;101640.59;;;17.04;61.78
70900;BME280;67902;52.154;5.430;2023-05-01T13:27:10;101639.38;;;16.85;64.26
70900;BME280;67902;52.154;5.430;2023-05-01T13:29:38;101633.56;;;16.71;63.74
70900;BME280;67902;52.154;5.430;2023-05-01T13:32:05;101636.31;;;16.76;64.64
70900;BME280;67902;52.154;5.430;2023-05-01T13:34:32;101641.22;;;16.69;63.20
70900;BME280;67902;52.154;5.430;2023-05-01T13:37:00;101640.69;;;16.67;62.62
70900;BME280;67902;52.154;5.430;2023-05-01T13:39:27;101641.06;;;16.49;61.78
70900;BME280;67902;52.154;5.430;2023-05-01T13:41:54;101638.56;;;16.42;61.23